Time;durP1;ratioP1;P1;durP2;ratioP2;P2;SDS_P1;SDS_P2;PMS_P1;PMS_P2;Temp;Humidity;BMP_temperature;BMP_pressure;BME280_temperature;BME280_humidity;BME280_pressure;Samples;Min_cycle;Max_cycle;Signal;HPM_P1;HPM_P2
2022/03/04 00:09:49;;;;;;;12.43;8.63;;;12.50;53.80;;;;;;5006179;28;20114;-79
2022/03/04 00:12:39;;;;;;;11.15;8.43;;;12.40;53.90;;;;;;5022153;28;20056;-78
2022/03/04 00:15:11;;;;;;;10.57;8.02;;;12.40;54.00;;;;;;5021341;28;20452;-79
2022/03/04 00:17:54;;;;;;;13.68;9.45;;;12.40;53.80;;;;;;5022014;28;20044;-79
2022/03/04 00:20:44;;;;;;;11.13;8.10;;;12.40;53.80;;;;;;5021715;28;20068;-80
2022/03/04 00:23:42;;;;;;;12.18;8.57;;;12.40;54.00;;;;;;5011230;28;20392;-78
2022/03/04 00:26:30;;;;;;;11.88;8.80;;;12.30;53.80;;;;;;5055234;28;20033;-79
2022/03/04 00:29:10;;;;;;;11.15;8.18;;;12.40;53.90;;;;;;5021374;28;20107;-78
2022/03/04 00:31:51;;;;;;;11.25;7.95;;;12.40;53.80;;;;;;5023412;28;20052;-79
2022/03/04 00:34:27;;;;;;;11.27;7.55;;;12.30;53.60;;;;;;5041968;28;20039;-78
2022/03/04 00:37:17;;;;;;;11.77;7.70;;;12.20;53.60;;;;;;5040491;28;20121;-80
2022/03/04 00:40:24;;;;;;;9.98;7.68;;;12.20;54.00;;;;;;5039851;28;20467;-80
2022/03/04 00:42:58;;;;;;;11.65;7.60;;;12.20;54.00;;;;;;5039430;28;20066;-79
2022/03/04 00:45:37;;;;;;;9.88;7.60;;;12.20;53.70;;;;;;5041108;28;20102;-80
2022/03/04 00:48:22;;;;;;;10.32;7.25;;;12.10;53.50;;;;;;5041697;28;20048;-79
2022/03/04 00:51:01;;;;;;;;;;;;;;;;;;;;;
2022/03/04 00:53:37;;;;;;;10.25;7.35;;;12.00;54.00;;;;;;5057576;28;20045;-83
2022/03/04 00:56:09;;;;;;;8.93;6.82;;;12.00;54.30;;;;;;5041492;28;20094;-78
2022/03/04 00:58:44;;;;;;;10.68;7.53;;;12.10;54.10;;;;;;5037417;28;20033;-80
2022/03/04 01:01:21;;;;;;;9.85;7.07;;;12.00;54.10;;;;;;5022053;28;20126;-79
2022/03/04 01:03:47;;;;;;;10.73;7.60;;;12.10;54.20;;;;;;5020952;28;20448;-79
2022/03/04 01:06:12;;;;;;;9.30;6.80;;;12.10;54.10;;;;;;5020866;28;20096;-80
2022/03/04 01:11:45;;;;;;;10.38;7.20;;;12.10;54.20;;;;;;5036644;28;20055;-79
2022/03/04 01:14:45;;;;;;;11.38;7.60;;;12.10;54.20;;;;;;5006812;28;20444;-78
2022/03/04 01:17:48;;;;;;;9.07;7.05;;;12.00;54.10;;;;;;5036629;28;20041;-78
2022/03/04 01:20:40;;;;;;;11.50;6.93;;;12.10;54.20;;;;;;5020507;28;20140;-79
2022/03/04 01:23:42;;;;;;;;;;;;;;;;;;;;;
2022/03/04 01:29:53;;;;;;;9.00;6.40;;;12.00;53.90;;;;;;4958470;28;20109;-78
2022/03/04 01:32:21;;;;;;;12.40;6.78;;;12.00;53.90;;;;;;5051271;28;20037;-78
2022/03/04 01:34:47;;;;;;;8.18;5.82;;;11.90;53.60;;;;;;5040233;28;20135;-79
2022/03/04 01:37:15;;;;;;;8.85;6.07;;;12.00;54.10;;;;;;5024262;28;20579;-78
2022/03/04 01:39:44;;;;;;;9.30;6.38;;;12.00;54.00;;;;;;5025038;28;20110;-78
2022/03/04 01:42:10;;;;;;;8.25;6.15;;;12.00;53.90;;;;;;5025144;28;20151;-78
2022/03/04 01:44:36;;;;;;;9.70;6.07;;;12.00;54.50;;;;;;5024658;28;20072;-78
2022/03/04 01:47:02;;;;;;;8.23;6.05;;;12.00;53.80;;;;;;5041565;28;20037;-78
2022/03/04 01:49:28;;;;;;;10.48;6.28;;;12.00;53.80;;;;;;5024337;28;20472;-78
2022/03/04 01:51:56;;;;;;;10.85;6.50;;;12.00;53.80;;;;;;5024739;28;20065;-79
2022/03/04 01:54:25;;;;;;;8.90;6.18;;;11.90;53.50;;;;;;5024504;28;20380;-78
2022/03/04 01:56:51;;;;;;;9.23;6.72;;;11.90;53.80;;;;;;5024394;28;20175;-78
2022/03/04 01:59:22;;;;;;;10.00;6.32;;;11.90;53.90;;;;;;5029687;28;20029;-80
2022/03/04 02:01:55;;;;;;;8.95;6.32;;;11.90;54.50;;;;;;5041737;28;20522;-78
2022/03/04 02:04:22;;;;;;;8.85;6.43;;;11.90;53.90;;;;;;5044226;28;20036;-78
2022/03/04 02:06:48;;;;;;;9.23;6.47;;;11.90;53.90;;;;;;5044854;28;20044;-77
2022/03/04 02:09:16;;;;;;;8.15;5.88;;;11.90;53.80;;;;;;5044116;28;20080;-78
2022/03/04 02:11:45;;;;;;;7.45;5.75;;;12.00;53.70;;;;;;5044330;28;20049;-79
2022/03/04 02:14:13;;;;;;;8.55;5.95;;;12.00;53.80;;;;;;5043479;28;20044;-78
2022/03/04 02:16:51;;;;;;;9.45;6.18;;;12.00;53.60;;;;;;5044385;28;20113;-79
2022/03/04 02:19:21;;;;;;;10.18;6.53;;;11.90;53.50;;;;;;5043837;28;20048;-78
2022/03/04 02:21:57;;;;;;;9.50;6.85;;;12.00;53.40;;;;;;5041844;28;20101;-80
2022/03/04 02:24:26;;;;;;;9.07;6.43;;;12.00;53.20;;;;;;5043541;28;20036;-79
2022/03/04 02:26:54;;;;;;;9.48;6.68;;;12.00;53.20;;;;;;5043750;28;20036;-79
2022/03/04 02:29:22;;;;;;;8.63;6.03;;;12.00;53.30;;;;;;5043577;28;20123;-78
2022/03/04 02:31:53;;;;;;;8.70;6.25;;;12.00;53.40;;;;;;5042168;28;20040;-79
2022/03/04 02:34:35;;;;;;;8.98;6.35;;;12.00;53.40;;;;;;5024537;28;20052;-78
2022/03/04 02:37:14;;;;;;;8.60;5.90;;;12.00;54.00;;;;;;5022860;28;20052;-79
2022/03/04 02:39:50;;;;;;;9.45;6.80;;;12.00;53.30;;;;;;5023560;28;20053;-79
2022/03/04 02:42:27;;;;;;;9.60;6.68;;;12.00;53.20;;;;;;5023744;28;20045;-80
2022/03/04 02:45:01;;;;;;;10.32;6.47;;;11.80;53.00;;;;;;5022912;28;20363;-79
2022/03/04 02:47:42;;;;;;;9.18;6.93;;;11.90;53.20;;;;;;5023137;28;20085;-78
2022/03/04 02:50:32;;;;;;;11.15;7.18;;;11.80;53.20;;;;;;5039303;28;20128;-78
2022/03/04 02:53:09;;;;;;;9.73;6.10;;;11.70;53.30;;;;;;5023984;28;20037;-78
2022/03/04 02:55:40;;;;;;;9.20;6.55;;;11.60;53.20;;;;;;5023804;28;20041;-78
2022/03/04 02:58:23;;;;;;;9.52;6.47;;;11.60;53.70;;;;;;5022625;28;20041;-79
2022/03/04 03:01:03;;;;;;;8.10;6.30;;;11.60;53.60;;;;;;5022178;28;20467;-78
2022/03/04 03:03:34;;;;;;;8.23;5.97;;;11.60;53.80;;;;;;5023416;28;20044;-78
2022/03/04 03:06:05;;;;;;;10.32;7.07;;;11.60;53.80;;;;;;5022320;28;20063;-79
2022/03/04 03:08:42;;;;;;;9.05;6.30;;;11.60;53.70;;;;;;5023210;28;20041;-79
2022/03/04 03:11:08;;;;;;;9.43;6.55;;;11.60;53.70;;;;;;5022526;28;20489;-79
2022/03/04 03:13:34;;;;;;;11.30;6.65;;;11.60;53.60;;;;;;5022518;28;20128;-79
2022/03/04 03:16:00;;;;;;;9.63;6.65;;;11.70;53.70;;;;;;5023329;28;20045;-78
2022/03/04 03:18:26;;;;;;;9.07;6.10;;;11.70;53.40;;;;;;5023466;28;20037;-79
2022/03/04 03:20:57;;;;;;;9.13;6.47;;;11.60;53.50;;;;;;5023115;28;20048;-79
2022/03/04 03:23:22;;;;;;;10.75;6.72;;;11.70;53.50;;;;;;5039189;28;20045;-77
2022/03/04 03:25:48;;;;;;;10.02;6.78;;;11.60;53.40;;;;;;5022972;28;20478;-78
2022/03/04 03:28:14;;;;;;;10.13;6.53;;;11.60;53.50;;;;;;5022408;28;20119;-79
2022/03/04 03:30:40;;;;;;;10.80;7.25;;;11.70;53.50;;;;;;5022560;28;20083;-78
2022/03/04 03:33:05;;;;;;;8.73;5.78;;;11.60;53.20;;;;;;5033516;28;20372;-77
2022/03/04 03:35:31;;;;;;;11.00;7.10;;;11.70;53.20;;;;;;5042438;28;20048;-79
2022/03/04 03:37:57;;;;;;;11.38;6.65;;;11.60;53.10;;;;;;5042161;28;20060;-78
2022/03/04 03:40:23;;;;;;;9.35;6.70;;;11.60;53.10;;;;;;5042536;28;20102;-78
2022/03/04 03:42:49;;;;;;;9.13;6.70;;;11.60;53.90;;;;;;5042796;28;20424;-78
2022/03/04 03:45:15;;;;;;;9.68;6.47;;;11.60;53.20;;;;;;5041957;28;20040;-77
2022/03/04 03:47:41;;;;;;;9.43;6.28;;;11.60;53.20;;;;;;5042399;28;20364;-79
2022/03/04 03:50:18;;;;;;;9.60;7.05;;;11.60;53.40;;;;;;5042139;28;20052;-78
2022/03/04 03:53:29;;;;;;;10.68;7.13;;;11.60;53.40;;;;;;5041897;28;20380;-79
2022/03/04 03:56:10;;;;;;;9.57;6.70;;;11.50;53.40;;;;;;5058421;28;20451;-78
2022/03/04 03:58:44;;;;;;;11.10;7.40;;;11.50;53.20;;;;;;5042203;28;20036;-78
2022/03/04 04:01:12;;;;;;;10.32;6.93;;;11.40;53.00;;;;;;5041719;28;20036;-78
2022/03/04 04:03:43;;;;;;;11.75;7.05;;;11.40;52.90;;;;;;5022574;28;20041;-79
2022/03/04 04:06:08;;;;;;;9.95;7.03;;;11.30;53.50;;;;;;5022385;28;20371;-78
2022/03/04 04:08:39;;;;;;;10.02;7.13;;;11.20;53.60;;;;;;5022455;28;20051;-77
2022/03/04 04:11:05;;;;;;;12.00;7.82;;;11.20;53.80;;;;;;5022408;28;20045;-79
2022/03/04 04:13:31;;;;;;;10.57;7.65;;;11.20;53.80;;;;;;5037935;28;20041;-77
2022/03/04 04:15:56;;;;;;;12.40;8.55;;;11.20;53.70;;;;;;5021281;28;20052;-79
2022/03/04 04:18:22;;;;;;;11.75;7.80;;;11.20;53.70;;;;;;5022129;28;20120;-79
2022/03/04 04:20:48;;;;;;;11.90;8.43;;;11.20;53.60;;;;;;5021579;28;20044;-79
2022/03/04 04:23:14;;;;;;;12.57;7.90;;;11.20;53.60;;;;;;5021785;28;20044;-78
2022/03/04 04:25:39;;;;;;;11.75;8.05;;;11.30;53.70;;;;;;5021883;28;20051;-78
2022/03/04 04:28:05;;;;;;;12.70;8.38;;;11.30;53.60;;;;;;5021549;28;20076;-79
2022/03/04 04:30:31;;;;;;;12.20;7.82;;;11.30;53.40;;;;;;5021479;28;20142;-79
2022/03/04 04:33:00;;;;;;;11.68;7.75;;;11.30;53.40;;;;;;5033438;28;20106;-78
2022/03/04 04:35:26;;;;;;;12.07;7.70;;;11.30;53.10;;;;;;5041230;28;20044;-79
2022/03/04 04:37:52;;;;;;;12.90;7.90;;;11.20;53.30;;;;;;5057224;28;20057;-77
2022/03/04 04:40:18;;;;;;;11.48;7.88;;;11.20;53.40;;;;;;5041196;28;20099;-79
2022/03/04 04:42:44;;;;;;;12.07;8.23;;;11.10;53.30;;;;;;5041040;28;20044;-78
2022/03/04 04:45:10;;;;;;;11.05;7.60;;;11.10;53.50;;;;;;5041105;28;20044;-79
2022/03/04 04:48:13;;;;;;;13.00;8.93;;;10.90;53.40;;;;;;5039823;28;20517;-79
2022/03/04 04:51:02;;;;;;;10.90;7.53;;;11.00;53.80;;;;;;5041414;28;20468;-79
2022/03/04 04:53:52;;;;;;;12.75;8.90;;;10.90;53.90;;;;;;5041539;28;20043;-78
2022/03/04 04:56:32;;;;;;;11.57;7.70;;;11.00;53.80;;;;;;5041581;28;20060;-79
2022/03/04 04:59:00;;;;;;;;;;;11.00;53.80;;;;;;4981140;28;20058;-77
2022/03/04 05:01:26;;;;;;;12.88;8.20;;;10.90;53.50;;;;;;4977962;28;20077;-77
2022/03/04 05:03:52;;;;;;;10.68;7.57;;;11.00;53.70;;;;;;4977032;28;20517;-77
2022/03/04 05:06:18;;;;;;;14.70;8.50;;;10.90;53.70;;;;;;4981332;28;20053;-79
2022/03/04 05:08:43;;;;;;;14.98;7.97;;;11.00;53.60;;;;;;4980902;28;20042;-78
2022/03/04 05:11:12;;;;;;;12.93;8.18;;;11.10;53.90;;;;;;4980717;28;20054;-77
2022/03/04 05:13:38;;;;;;;18.77;9.20;;;11.10;54.00;;;;;;4996545;28;20145;-72
2022/03/04 05:16:03;;;;;;;15.73;9.23;;;11.10;53.80;;;;;;5011410;28;20070;-77
2022/03/04 05:18:30;;;;;;;17.55;9.23;;;11.20;53.20;;;;;;5013025;28;20046;-78
2022/03/04 05:20:56;;;;;;;16.98;10.35;;;11.30;52.50;;;;;;4972761;28;20071;-76
2022/03/04 05:26:06;;;;;;;15.20;9.88;;;11.40;51.70;;;;;;5074566;28;20044;-75
2022/03/04 05:28:31;;;;;;;12.82;9.50;;;11.40;51.50;;;;;;5074677;28;20044;-74
2022/03/04 05:31:03;;;;;;;15.63;9.73;;;11.40;52.40;;;;;;5056729;28;20044;-79
2022/03/04 05:33:31;;;;;;;13.63;8.50;;;11.40;53.60;;;;;;5073947;28;20037;-77
2022/03/04 05:35:57;;;;;;;14.02;9.73;;;11.50;56.00;;;;;;5041166;28;20045;-78
2022/03/04 05:38:23;;;;;;;14.60;10.00;;;11.50;60.20;;;;;;5074077;28;20045;-75
2022/03/04 05:40:51;;;;;;;16.30;9.45;;;11.60;63.40;;;;;;5074355;28;20107;-78
2022/03/04 05:43:17;;;;;;;19.73;11.98;;;11.80;63.00;;;;;;5039998;28;20052;-79
2022/03/04 05:45:43;;;;;;;27.38;10.70;;;11.80;63.30;;;;;;5072683;28;20098;-79
2022/03/04 05:48:08;;;;;;;15.70;8.13;;;12.00;62.20;;;;;;5037722;28;20040;-78
2022/03/04 05:50:34;;;;;;;15.18;7.93;;;12.00;58.20;;;;;;5040187;28;20452;-80
2022/03/04 05:53:00;;;;;;;15.55;7.82;;;12.30;59.50;;;;;;5056677;28;20044;-73
2022/03/04 05:55:26;;;;;;;17.52;7.22;;;12.50;59.60;;;;;;5057158;28;20037;-76
2022/03/04 05:57:55;;;;;;;16.73;7.53;;;12.80;59.90;;;;;;5056806;28;20414;-78
2022/03/04 06:00:21;;;;;;;10.43;5.88;;;13.00;59.30;;;;;;5039971;28;20044;-77
2022/03/04 06:02:47;;;;;;;13.30;6.10;;;13.10;59.00;;;;;;5038665;28;20083;-78
2022/03/04 06:05:13;;;;;;;16.38;6.57;;;13.30;58.90;;;;;;5074311;28;20037;-80
2022/03/04 06:07:39;;;;;;;17.05;6.40;;;13.50;58.70;;;;;;5057322;28;20352;-80
2022/03/04 06:10:06;;;;;;;16.52;5.63;;;13.70;58.70;;;;;;5039620;28;20041;-82
2022/03/04 06:12:32;;;;;;;15.93;5.40;;;13.90;58.50;;;;;;5056788;28;20087;-82
2022/03/04 06:14:58;;;;;;;18.67;5.88;;;14.10;58.50;;;;;;5039960;28;20441;-80
2022/03/04 06:17:24;;;;;;;13.55;4.95;;;14.20;58.20;;;;;;5032055;28;20107;-81
2022/03/04 06:19:50;;;;;;;13.50;5.40;;;14.40;57.80;;;;;;5051084;28;20411;-83
2022/03/04 06:22:18;;;;;;;21.42;5.63;;;14.40;57.60;;;;;;5035769;28;20052;-81
2022/03/04 06:24:44;;;;;;;11.68;5.13;;;14.50;56.60;;;;;;5037501;28;20094;-80
2022/03/04 06:27:10;;;;;;;12.55;4.63;;;14.50;56.70;;;;;;5043668;28;20032;-82
2022/03/04 06:29:38;;;;;;;11.00;4.60;;;14.60;56.90;;;;;;5043708;28;20033;-79
2022/03/04 06:32:04;;;;;;;17.17;4.88;;;14.70;57.00;;;;;;5042031;28;20048;-79
2022/03/04 06:34:30;;;;;;;20.45;7.78;;;14.80;56.50;;;;;;5077524;28;20037;-83
2022/03/04 06:36:56;;;;;;;16.38;5.13;;;14.60;49.90;;;;;;5058930;28;20494;-84
2022/03/04 06:39:22;;;;;;;16.48;5.38;;;14.70;55.30;;;;;;5077410;28;20047;-80
2022/03/04 06:41:56;;;;;;;13.82;4.95;;;14.80;55.50;;;;;;5043119;28;20110;-78
2022/03/04 06:44:22;;;;;;;23.60;5.10;;;14.90;55.80;;;;;;5042974;28;20076;-82
2022/03/04 06:46:48;;;;;;;19.85;4.55;;;14.90;55.80;;;;;;5043238;28;20106;-83
2022/03/04 06:49:16;;;;;;;13.45;4.68;;;15.00;55.70;;;;;;5059948;28;20044;-82
2022/03/04 06:51:51;;;;;;;15.40;5.38;;;15.10;55.40;;;;;;5043009;28;20143;-83
2022/03/04 06:54:17;;;;;;;19.67;5.10;;;15.10;54.90;;;;;;5040334;28;20048;-82
2022/03/04 06:56:43;;;;;;;24.85;4.85;;;15.20;55.60;;;;;;5022965;28;20033;-82
2022/03/04 06:59:09;;;;;;;12.95;5.20;;;15.20;55.40;;;;;;5023056;28;20453;-82
2022/03/04 07:01:35;;;;;;;12.40;5.10;;;15.30;55.30;;;;;;5007200;28;20048;-84
2022/03/04 07:04:00;;;;;;;19.20;5.15;;;14.50;52.10;;;;;;5022784;28;20507;-83
2022/03/04 07:06:26;;;;;;;13.35;4.07;;;14.80;55.00;;;;;;5022058;28;20041;-77
2022/03/04 07:08:52;;;;;;;16.42;4.45;;;15.10;55.30;;;;;;5057395;28;20120;-77
2022/03/04 07:11:17;;;;;;;9.15;3.80;;;15.30;55.00;;;;;;5057263;28;20075;-76
2022/03/04 07:13:43;;;;;;;12.38;4.18;;;15.40;54.90;;;;;;5039422;28;20049;-79
2022/03/04 07:16:10;;;;;;;13.52;4.85;;;15.50;54.60;;;;;;5056739;28;20045;-77
2022/03/04 07:18:36;;;;;;;9.90;4.32;;;15.60;54.00;;;;;;5056857;28;20060;-79
2022/03/04 07:21:01;;;;;;;9.55;4.25;;;15.60;53.80;;;;;;5039586;28;20045;-77
2022/03/04 07:23:28;;;;;;;10.57;3.58;;;15.70;53.50;;;;;;5056245;28;20060;-77
2022/03/04 07:25:53;;;;;;;10.10;3.90;;;15.80;53.30;;;;;;5071314;28;20083;-76
2022/03/04 07:28:19;;;;;;;7.65;3.75;;;15.90;53.00;;;;;;5076569;28;20103;-77
2022/03/04 07:30:45;;;;;;;12.60;3.38;;;16.00;52.80;;;;;;5059646;28;20045;-77
2022/03/04 07:33:11;;;;;;;8.90;3.47;;;16.00;52.50;;;;;;5076710;28;20040;-77
2022/03/04 07:35:45;;;;;;;9.80;4.05;;;16.10;52.30;;;;;;5059018;28;20577;-77
2022/03/04 07:38:12;;;;;;;8.65;3.35;;;16.10;52.20;;;;;;5076138;28;20388;-78
2022/03/04 07:40:38;;;;;;;7.13;3.30;;;16.20;52.10;;;;;;5070071;28;20441;-78
2022/03/04 07:43:04;;;;;;;8.73;4.20;;;16.20;52.10;;;;;;5081927;28;20085;-79
2022/03/04 07:45:29;;;;;;;6.60;3.63;;;16.30;50.90;;;;;;5097164;28;20094;-79
2022/03/04 07:47:55;;;;;;;9.95;3.90;;;16.30;50.60;;;;;;5076785;28;20363;-80
2022/03/04 07:50:21;;;;;;;8.63;3.90;;;16.40;50.60;;;;;;5058910;28;20044;-80
2022/03/04 07:52:47;;;;;;;8.07;3.40;;;16.50;50.50;;;;;;5075559;28;20051;-77
2022/03/04 07:55:14;;;;;;;5.43;3.38;;;16.60;50.50;;;;;;5076247;28;20048;-79
2022/03/04 07:57:41;;;;;;;5.25;3.25;;;16.60;50.50;;;;;;5076094;28;20131;-79
2022/03/04 08:00:10;;;;;;;10.45;3.33;;;16.70;50.50;;;;;;5075961;28;20036;-77
2022/03/04 08:02:36;;;;;;;5.90;3.00;;;16.60;50.30;;;;;;5057055;28;20352;-78
2022/03/04 08:05:02;;;;;;;6.00;3.65;;;16.70;50.20;;;;;;5076119;28;20048;-82
2022/03/04 08:07:28;;;;;;;4.95;3.00;;;16.80;50.10;;;;;;5076187;28;20053;-83
2022/03/04 08:09:54;;;;;;;8.15;3.30;;;16.80;50.10;;;;;;5058138;28;20040;-78
2022/03/04 08:12:20;;;;;;;6.85;3.33;;;16.80;50.20;;;;;;5075248;28;20359;-78
2022/03/04 08:14:47;;;;;;;7.22;3.70;;;16.80;50.20;;;;;;5075961;28;20115;-75
2022/03/04 08:17:12;;;;;;;6.25;3.33;;;16.80;50.10;;;;;;5058682;28;20040;-75
2022/03/04 08:19:39;;;;;;;4.60;3.03;;;16.90;50.80;;;;;;5039041;28;20056;-79
2022/03/04 08:22:06;;;;;;;4.95;2.92;;;16.90;50.10;;;;;;5055957;28;20044;-77
2022/03/04 08:24:32;;;;;;;5.45;3.60;;;16.90;50.10;;;;;;5038811;28;20076;-78
2022/03/04 08:26:58;;;;;;;8.52;3.83;;;16.90;50.10;;;;;;5055530;28;20464;-78
2022/03/04 08:29:24;;;;;;;8.98;3.45;;;16.90;50.20;;;;;;5055422;28;20360;-76
2022/03/04 08:31:49;;;;;;;7.00;3.60;;;16.90;50.20;;;;;;5055588;28;20041;-80
2022/03/04 08:34:15;;;;;;;5.25;3.20;;;16.90;50.20;;;;;;5021513;28;20045;-77
2022/03/04 08:36:41;;;;;;;9.68;3.35;;;16.90;50.20;;;;;;5056502;28;20349;-78
2022/03/04 08:39:07;;;;;;;5.65;3.25;;;16.90;50.20;;;;;;5057837;28;20710;-77
2022/03/04 08:41:34;;;;;;;5.53;3.40;;;16.90;50.20;;;;;;5074847;28;20433;-77
2022/03/04 08:44:00;;;;;;;6.05;3.30;;;16.90;50.30;;;;;;5074855;28;20162;-78
2022/03/04 08:46:26;;;;;;;7.20;3.20;;;16.90;50.30;;;;;;5075483;28;20045;-78
2022/03/04 08:48:52;;;;;;;4.45;2.95;;;16.90;50.50;;;;;;5075295;28;20133;-79
2022/03/04 08:51:18;;;;;;;5.38;2.80;;;16.90;50.40;;;;;;5067070;28;20044;-79
2022/03/04 08:53:44;;;;;;;6.50;3.67;;;17.00;50.40;;;;;;5060710;28;20048;-78
2022/03/04 08:56:10;;;;;;;4.93;3.53;;;17.00;50.30;;;;;;5074779;28;20062;-78
2022/03/04 08:58:35;;;;;;;5.53;3.75;;;17.00;50.30;;;;;;5057308;28;20418;-79
2022/03/04 09:01:02;;;;;;;4.90;3.20;;;16.90;50.30;;;;;;5075166;28;20049;-79
2022/03/04 09:03:28;;;;;;;7.88;3.50;;;17.00;50.30;;;;;;5075366;28;20131;-78
2022/03/04 09:05:53;;;;;;;6.80;3.33;;;17.00;50.30;;;;;;5072419;28;20135;-78
2022/03/04 09:08:19;;;;;;;6.28;3.50;;;17.00;50.30;;;;;;5073831;28;20376;-76
2022/03/04 09:10:45;;;;;;;6.05;4.20;;;17.00;50.30;;;;;;5057154;28;20388;-78
2022/03/04 09:13:11;;;;;;;4.55;3.38;;;17.00;50.30;;;;;;5058157;28;20122;-76
2022/03/04 09:15:37;;;;;;;5.47;3.35;;;17.00;50.30;;;;;;5037114;28;20049;-79
2022/03/04 09:18:03;;;;;;;6.07;3.22;;;17.00;50.30;;;;;;5054871;28;20080;-79
2022/03/04 09:20:29;;;;;;;6.72;3.50;;;17.00;50.20;;;;;;5040416;28;20045;-77
2022/03/04 09:22:56;;;;;;;4.55;3.30;;;17.00;50.20;;;;;;5074766;28;20049;-78
2022/03/04 09:25:22;;;;;;;5.22;3.63;;;17.10;50.20;;;;;;5074673;28;20045;-78
2022/03/04 09:27:50;;;;;;;5.13;3.55;;;17.20;50.10;;;;;;5074912;28;20431;-78
2022/03/04 09:30:16;;;;;;;5.00;3.53;;;17.10;50.00;;;;;;5074686;28;20044;-78
2022/03/04 09:32:42;;;;;;;3.53;3.05;;;17.10;50.10;;;;;;5074944;28;20051;-78
2022/03/04 09:35:08;;;;;;;5.10;3.63;;;17.10;50.10;;;;;;5074869;28;20048;-78
2022/03/04 09:37:35;;;;;;;3.97;3.38;;;17.10;50.10;;;;;;5071291;28;20359;-79
2022/03/04 09:40:05;;;;;;;5.40;3.85;;;17.10;50.10;;;;;;5075098;28;20048;-79
2022/03/04 09:42:33;;;;;;;5.72;3.45;;;17.10;50.00;;;;;;5052872;28;20140;-79
2022/03/04 09:45:00;;;;;;;4.28;3.13;;;17.10;50.10;;;;;;5054665;28;20110;-78
2022/03/04 09:47:26;;;;;;;5.28;3.40;;;17.00;50.10;;;;;;5020786;28;20087;-78
2022/03/04 09:49:53;;;;;;;5.22;3.90;;;17.00;50.20;;;;;;5054523;28;20044;-78
2022/03/04 09:52:20;;;;;;;5.20;3.65;;;17.00;50.30;;;;;;5054033;28;20502;-79
2022/03/04 09:54:50;;;;;;;7.00;4.22;;;16.90;50.30;;;;;;5037470;28;20444;-79
2022/03/04 09:57:16;;;;;;;5.20;4.15;;;16.80;50.30;;;;;;5057856;28;20123;-79
2022/03/04 09:59:43;;;;;;;5.50;3.75;;;16.70;50.50;;;;;;5058689;28;20053;-77
2022/03/04 10:02:14;;;;;;;4.65;3.83;;;16.70;50.60;;;;;;5057944;28;20048;-76
2022/03/04 10:04:41;;;;;;;5.05;4.05;;;16.60;50.60;;;;;;5058152;28;20083;-75
2022/03/04 10:07:14;;;;;;;7.53;3.55;;;16.50;50.60;;;;;;5057967;28;20523;-76
2022/03/04 10:09:48;;;;;;;5.40;4.07;;;15.80;51.10;;;;;;5054612;28;20452;-75
2022/03/04 10:12:16;;;;;;;5.88;4.32;;;15.90;51.80;;;;;;5088699;28;20048;-77
2022/03/04 10:15:04;;;;;;;6.22;4.38;;;15.90;52.00;;;;;;5058187;28;20048;-76
2022/03/04 10:17:31;;;;;;;6.80;3.70;;;16.00;51.90;;;;;;5057844;28;20098;-75
2022/03/04 10:19:59;;;;;;;6.13;4.47;;;15.90;52.00;;;;;;5058785;28;20053;-75
2022/03/04 10:22:46;;;;;;;6.28;4.38;;;15.90;52.60;;;;;;5057522;28;20453;-75
2022/03/04 10:25:25;;;;;;;6.30;4.63;;;15.90;51.80;;;;;;5057841;28;20048;-76
2022/03/04 10:27:51;;;;;;;6.15;4.60;;;15.80;51.80;;;;;;5057926;28;20448;-75
2022/03/04 10:30:28;;;;;;;6.75;4.32;;;15.80;51.90;;;;;;5057678;28;20081;-75
2022/03/04 10:33:05;;;;;;;6.65;4.75;;;15.80;51.90;;;;;;5058497;28;20037;-75
2022/03/04 10:35:31;;;;;;;5.40;4.10;;;15.80;51.80;;;;;;5057908;28;20424;-76
2022/03/04 10:37:57;;;;;;;7.90;4.45;;;15.70;51.90;;;;;;5040477;28;20100;-75
2022/03/04 10:40:31;;;;;;;6.30;4.40;;;15.60;52.00;;;;;;5060619;28;20049;-75
2022/03/04 10:43:05;;;;;;;5.07;4.28;;;15.60;52.00;;;;;;5059374;28;20115;-76
2022/03/04 10:45:41;;;;;;;5.57;4.32;;;15.60;52.00;;;;;;5077744;28;20456;-74
2022/03/04 10:48:14;;;;;;;6.70;4.38;;;15.50;51.90;;;;;;5077688;28;20210;-76
2022/03/04 10:50:42;;;;;;;7.18;4.38;;;15.50;51.90;;;;;;5077252;28;20106;-75
2022/03/04 10:53:11;;;;;;;5.97;4.53;;;15.50;52.20;;;;;;5077287;28;20091;-75
2022/03/04 10:55:48;;;;;;;7.63;5.38;;;15.50;52.40;;;;;;5076920;28;20337;-76
2022/03/04 10:58:29;;;;;;;11.27;5.28;;;15.50;52.30;;;;;;5073937;28;20521;-75
2022/03/04 11:01:09;;;;;;;7.70;5.47;;;15.40;52.10;;;;;;5076484;28;20044;-76
2022/03/04 11:03:38;;;;;;;12.77;6.22;;;15.30;52.20;;;;;;5055731;28;20091;-76
2022/03/04 11:06:06;;;;;;;8.57;5.97;;;15.30;52.30;;;;;;5071832;28;20053;-78
2022/03/04 11:08:32;;;;;;;6.50;5.32;;;15.30;52.20;;;;;;5059365;28;20052;-77
2022/03/04 11:10:59;;;;;;;10.45;5.93;;;15.30;52.20;;;;;;5067210;28;20384;-74
2022/03/04 11:13:25;;;;;;;7.57;5.53;;;15.30;52.50;;;;;;5058428;28;20474;-76
2022/03/04 11:15:53;;;;;;;6.40;4.60;;;15.20;52.50;;;;;;5076525;28;20467;-75
2022/03/04 11:18:21;;;;;;;6.10;4.97;;;15.20;52.60;;;;;;5076127;28;20080;-75
2022/03/04 11:20:51;;;;;;;6.80;5.30;;;15.20;52.70;;;;;;5076450;28;20044;-76
2022/03/04 11:23:18;;;;;;;8.15;5.03;;;15.10;52.70;;;;;;5059102;28;20091;-74
2022/03/04 11:25:50;;;;;;;6.93;5.40;;;15.10;52.90;;;;;;5056321;28;20040;-77
2022/03/04 11:28:19;;;;;;;8.73;5.40;;;15.10;53.00;;;;;;5073923;28;20083;-75
2022/03/04 11:30:46;;;;;;;7.18;5.50;;;15.10;53.00;;;;;;5076088;28;20078;-75
2022/03/04 11:33:15;;;;;;;11.13;5.97;;;15.00;53.10;;;;;;5077075;28;20328;-74
2022/03/04 11:35:41;;;;;;;8.88;5.25;;;15.00;53.30;;;;;;5059139;28;20146;-74
2022/03/04 11:38:10;;;;;;;7.22;5.50;;;15.10;53.60;;;;;;5076460;28;20084;-74
2022/03/04 11:40:38;;;;;;;8.60;7.13;;;15.10;53.60;;;;;;5058756;28;20106;-74
2022/03/04 11:43:06;;;;;;;7.15;5.50;;;15.10;53.40;;;;;;5076132;28;20044;-75
2022/03/04 11:45:36;;;;;;;8.05;5.97;;;15.00;53.20;;;;;;5076177;28;20049;-75
2022/03/04 11:48:05;;;;;;;10.32;6.13;;;15.00;53.30;;;;;;5076163;28;20044;-75
2022/03/04 11:50:38;;;;;;;6.93;5.25;;;15.00;53.30;;;;;;5076115;28;20058;-74
2022/03/04 11:53:11;;;;;;;8.63;5.30;;;15.00;53.40;;;;;;5076846;28;20040;-75
2022/03/04 11:55:36;;;;;;;7.80;5.00;;;14.90;53.40;;;;;;5075726;28;20102;-76
2022/03/04 11:58:04;;;;;;;8.25;5.00;;;14.90;53.40;;;;;;5075547;28;20406;-76
2022/03/04 12:00:31;;;;;;;6.22;4.65;;;14.90;53.00;;;;;;5058257;28;20063;-75
2022/03/04 12:03:00;;;;;;;8.25;4.93;;;14.80;52.70;;;;;;5075898;28;20442;-74
2022/03/04 12:05:30;;;;;;;5.95;3.97;;;14.80;52.70;;;;;;5075662;28;20464;-74
2022/03/04 12:07:55;;;;;;;5.38;4.18;;;14.80;52.90;;;;;;5075513;28;20136;-75
2022/03/04 12:10:38;;;;;;;4.70;3.47;;;14.90;53.20;;;;;;5075652;28;20451;-74
2022/03/04 12:13:05;;;;;;;7.30;4.10;;;14.80;53.40;;;;;;5075357;28;20036;-74
2022/03/04 12:15:38;;;;;;;7.20;4.13;;;14.80;53.40;;;;;;5075614;28;20040;-74
2022/03/04 12:18:28;;;;;;;4.32;3.42;;;14.80;53.50;;;;;;5075594;28;20040;-73
2022/03/04 12:20:59;;;;;;;5.22;3.80;;;14.90;53.50;;;;;;5075381;28;20048;-74
2022/03/04 12:23:43;;;;;;;6.63;3.55;;;14.90;53.40;;;;;;5075445;28;20127;-73
2022/03/04 12:26:11;;;;;;;5.75;3.38;;;14.90;53.30;;;;;;5075969;28;20080;-73
2022/03/04 12:29:07;;;;;;;7.57;3.72;;;14.90;53.30;;;;;;5075660;28;20048;-74
2022/03/04 12:31:39;;;;;;;4.53;3.15;;;14.90;53.30;;;;;;5049823;28;20053;-74
2022/03/04 12:34:13;;;;;;;4.97;3.30;;;14.90;53.30;;;;;;5075046;28;20084;-74
2022/03/04 12:36:39;;;;;;;4.57;2.97;;;15.00;53.30;;;;;;5073537;28;20055;-74
2022/03/04 12:39:05;;;;;;;5.30;3.40;;;15.00;53.30;;;;;;5055692;28;20045;-74
2022/03/04 12:41:33;;;;;;;5.35;3.55;;;15.00;53.20;;;;;;5055685;28;20049;-74
2022/03/04 12:44:07;;;;;;;3.92;2.97;;;15.00;53.20;;;;;;5055440;28;20122;-74
2022/03/04 12:46:36;;;;;;;4.20;2.95;;;15.00;53.10;;;;;;5055673;28;20045;-74
2022/03/04 12:49:04;;;;;;;5.65;2.88;;;15.00;53.20;;;;;;5054995;28;20364;-74
2022/03/04 12:51:30;;;;;;;3.63;2.50;;;15.00;53.20;;;;;;5055573;28;20491;-73
2022/03/04 12:54:02;;;;;;;4.68;2.50;;;15.00;53.20;;;;;;5054689;28;20053;-74
2022/03/04 12:56:29;;;;;;;3.80;3.00;;;14.90;53.20;;;;;;5052020;28;20041;-74
2022/03/04 12:59:01;;;;;;;3.80;2.53;;;14.90;53.30;;;;;;5054826;28;20526;-74
2022/03/04 13:01:29;;;;;;;4.50;2.72;;;14.90;53.30;;;;;;5054941;28;20128;-74
2022/03/04 13:04:00;;;;;;;3.00;2.47;;;14.90;53.40;;;;;;5054737;28;20115;-74
2022/03/04 13:06:29;;;;;;;6.15;2.55;;;14.80;53.40;;;;;;5055259;28;20041;-74
2022/03/04 13:08:59;;;;;;;5.25;3.38;;;14.90;53.50;;;;;;5054867;28;20363;-73
2022/03/04 13:11:32;;;;;;;4.68;2.72;;;14.80;53.50;;;;;;5054747;28;20056;-74
2022/03/04 13:14:02;;;;;;;3.28;2.53;;;14.80;53.60;;;;;;5054580;28;20482;-73
2022/03/04 13:16:47;;;;;;;3.30;2.40;;;14.80;53.60;;;;;;5037923;28;20044;-73
2022/03/04 13:19:23;;;;;;;2.92;2.47;;;14.80;53.60;;;;;;5054586;28;20048;-73